sensor_id;sensor_type;location;lat;lon;timestamp;P1;durP1;ratioP1;P2;durP2;ratioP2
38591;SDS011;24356;48.460;11.450;2023-06-26T00:02:13;9.98;;;6.38;;
38591;SDS011;24356;48.460;11.450;2023-06-26T00:04:39;10.10;;;6.65;;
38591;SDS011;24356;48.460;11.450;2023-06-26T00:07:04;13.93;;;6.82;;
38591;SDS011;24356;48.460;11.450;2023-06-26T00:09:30;8.90;;;6.00;;
38591;SDS011;24356;48.460;11.450;2023-06-26T00:11:56;14.35;;;6.10;;
38591;SDS011;24356;48.460;11.450;2023-06-26T00:14:21;12.35;;;5.95;;
38591;SDS011;24356;48.460;11.450;2023-06-26T00:16:47;9.35;;;5.75;;
38591;SDS011;24356;48.460;11.450;2023-06-26T00:19:14;8.07;;;5.60;;
38591;SDS011;24356;48.460;11.450;2023-06-26T00:21:40;9.55;;;6.32;;
38591;SDS011;24356;48.460;11.450;2023-06-26T00:24:11;9.68;;;6.28;;
38591;SDS011;24356;48.460;11.450;2023-06-26T00:26:37;13.50;;;6.40;;
38591;SDS011;24356;48.460;11.450;2023-06-26T00:29:03;10.13;;;6.10;;
38591;SDS011;24356;48.460;11.450;2023-06-26T00:31:28;10.70;;;6.20;;
38591;SDS011;24356;48.460;11.450;2023-06-26T00:33:54;12.98;;;6.50;;
38591;SDS011;24356;48.460;11.450;2023-06-26T00:36:19;9.48;;;6.03;;
38591;SDS011;24356;48.460;11.450;2023-06-26T00:38:47;10.55;;;6.25;;
38591;SDS011;24356;48.460;11.450;2023-06-26T00:41:13;11.15;;;6.03;;
38591;SDS011;24356;48.460;11.450;2023-06-26T00:43:39;10.15;;;6.43;;
38591;SDS011;24356;48.460;11.450;2023-06-26T00:46:05;11.45;;;6.07;;
38591;SDS011;24356;48.460;11.450;2023-06-26T00:48:34;9.60;;;6.43;;
38591;SDS011;24356;48.460;11.450;2023-06-26T00:51:00;8.90;;;6.53;;
38591;SDS011;24356;48.460;11.450;2023-06-26T00:53:26;10.75;;;6.15;;
38591;SDS011;24356;48.460;11.450;2023-06-26T00:55:53;11.48;;;6.68;;
38591;SDS011;24356;48.460;11.450;2023-06-26T00:58:19;10.02;;;6.72;;
38591;SDS011;24356;48.460;11.450;2023-06-26T01:00:48;10.30;;;6.65;;
38591;SDS011;24356;48.460;11.450;2023-06-26T01:03:14;12.68;;;6.30;;
38591;SDS011;24356;48.460;11.450;2023-06-26T01:05:40;10.38;;;6.32;;
38591;SDS011;24356;48.460;11.450;2023-06-26T01:08:06;9.63;;;5.93;;
38591;SDS011;24356;48.460;11.450;2023-06-26T01:10:33;12.80;;;6.90;;
38591;SDS011;24356;48.460;11.450;2023-06-26T01:12:59;10.35;;;6.40;;
38591;SDS011;24356;48.460;11.450;2023-06-26T01:15:24;11.07;;;6.57;;
38591;SDS011;24356;48.460;11.450;2023-06-26T01:17:50;12.38;;;6.60;;
38591;SDS011;24356;48.460;11.450;2023-06-26T01:20:17;13.80;;;6.57;;
38591;SDS011;24356;48.460;11.450;2023-06-26T01:22:48;11.07;;;7.07;;
38591;SDS011;24356;48.460;11.450;2023-06-26T01:26:06;12.10;;;6.82;;
38591;SDS011;24356;48.460;11.450;2023-06-26T01:28:27;10.95;;;7.15;;
38591;SDS011;24356;48.460;11.450;2023-06-26T01:30:54;11.30;;;6.65;;
38591;SDS011;24356;48.460;11.450;2023-06-26T01:33:20;13.90;;;7.18;;
38591;SDS011;24356;48.460;11.450;2023-06-26T01:35:46;19.02;;;7.15;;
38591;SDS011;24356;48.460;11.450;2023-06-26T01:40:40;11.05;;;7.13;;
38591;SDS011;24356;48.460;11.450;2023-06-26T01:43:06;14.48;;;6.68;;
38591;SDS011;24356;48.460;11.450;2023-06-26T01:45:38;14.17;;;7.77;;
38591;SDS011;24356;48.460;11.450;2023-06-26T01:48:04;11.48;;;7.72;;
38591;SDS011;24356;48.460;11.450;2023-06-26T01:50:33;13.77;;;8.13;;
38591;SDS011;24356;48.460;11.450;2023-06-26T01:53:04;13.32;;;8.05;;
38591;SDS011;24356;48.460;11.450;2023-06-26T01:58:09;11.65;;;7.63;;
38591;SDS011;24356;48.460;11.450;2023-06-26T02:00:35;11.38;;;7.65;;
38591;SDS011;24356;48.460;11.450;2023-06-26T02:03:02;11.20;;;6.93;;
38591;SDS011;24356;48.460;11.450;2023-06-26T02:05:29;13.50;;;7.50;;
38591;SDS011;24356;48.460;11.450;2023-06-26T02:07:56;14.55;;;7.72;;
38591;SDS011;24356;48.460;11.450;2023-06-26T02:10:21;11.82;;;7.50;;
38591;SDS011;24356;48.460;11.450;2023-06-26T02:12:47;13.38;;;7.97;;
38591;SDS011;24356;48.460;11.450;2023-06-26T02:15:12;12.60;;;7.35;;
38591;SDS011;24356;48.460;11.450;2023-06-26T02:17:38;11.65;;;7.00;;
38591;SDS011;24356;48.460;11.450;2023-06-26T02:20:04;12.48;;;7.72;;
38591;SDS011;24356;48.460;11.450;2023-06-26T02:22:30;12.85;;;7.97;;
38591;SDS011;24356;48.460;11.450;2023-06-26T02:24:56;12.05;;;7.63;;
38591;SDS011;24356;48.460;11.450;2023-06-26T02:27:22;11.55;;;7.22;;
38591;SDS011;24356;48.460;11.450;2023-06-26T02:29:47;11.88;;;7.25;;
38591;SDS011;24356;48.460;11.450;2023-06-26T02:32:13;13.90;;;7.60;;
38591;SDS011;24356;48.460;11.450;2023-06-26T02:34:39;11.07;;;7.30;;
38591;SDS011;24356;48.460;11.450;2023-06-26T02:37:04;11.88;;;6.88;;
38591;SDS011;24356;48.460;11.450;2023-06-26T02:39:32;13.60;;;7.43;;
38591;SDS011;24356;48.460;11.450;2023-06-26T02:41:58;12.10;;;7.50;;
38591;SDS011;24356;48.460;11.450;2023-06-26T02:44:24;16.58;;;8.00;;
38591;SDS011;24356;48.460;11.450;2023-06-26T02:46:49;14.40;;;7.70;;
38591;SDS011;24356;48.460;11.450;2023-06-26T02:49:15;11.60;;;7.57;;
38591;SDS011;24356;48.460;11.450;2023-06-26T02:51:40;15.25;;;8.27;;
38591;SDS011;24356;48.460;11.450;2023-06-26T02:54:06;13.60;;;7.90;;
38591;SDS011;24356;48.460;11.450;2023-06-26T02:56:32;13.40;;;7.57;;
38591;SDS011;24356;48.460;11.450;2023-06-26T02:58:57;13.60;;;7.20;;
38591;SDS011;24356;48.460;11.450;2023-06-26T03:01:23;11.65;;;8.25;;
38591;SDS011;24356;48.460;11.450;2023-06-26T03:03:49;14.48;;;8.15;;
38591;SDS011;24356;48.460;11.450;2023-06-26T03:06:15;14.10;;;7.40;;
38591;SDS011;24356;48.460;11.450;2023-06-26T03:08:41;10.05;;;6.85;;
38591;SDS011;24356;48.460;11.450;2023-06-26T03:11:07;9.80;;;7.00;;
38591;SDS011;24356;48.460;11.450;2023-06-26T03:13:34;15.35;;;7.40;;
38591;SDS011;24356;48.460;11.450;2023-06-26T03:16:00;11.32;;;7.75;;
38591;SDS011;24356;48.460;11.450;2023-06-26T03:18:26;12.65;;;7.97;;
38591;SDS011;24356;48.460;11.450;2023-06-26T03:20:52;11.32;;;7.07;;
38591;SDS011;24356;48.460;11.450;2023-06-26T03:23:19;13.00;;;7.60;;
38591;SDS011;24356;48.460;11.450;2023-06-26T03:25:45;14.25;;;8.32;;
38591;SDS011;24356;48.460;11.450;2023-06-26T03:28:11;11.48;;;6.90;;
38591;SDS011;24356;48.460;11.450;2023-06-26T03:30:36;14.50;;;7.38;;
38591;SDS011;24356;48.460;11.450;2023-06-26T03:33:02;11.07;;;7.60;;
38591;SDS011;24356;48.460;11.450;2023-06-26T03:35:28;12.05;;;7.57;;
38591;SDS011;24356;48.460;11.450;2023-06-26T03:37:53;15.35;;;7.75;;
38591;SDS011;24356;48.460;11.450;2023-06-26T03:40:19;12.00;;;7.13;;
38591;SDS011;24356;48.460;11.450;2023-06-26T03:42:45;11.38;;;6.78;;
38591;SDS011;24356;48.460;11.450;2023-06-26T03:45:10;14.38;;;7.28;;
38591;SDS011;24356;48.460;11.450;2023-06-26T03:47:36;11.88;;;7.28;;
38591;SDS011;24356;48.460;11.450;2023-06-26T03:50:02;11.23;;;7.28;;
38591;SDS011;24356;48.460;11.450;2023-06-26T03:52:27;11.65;;;7.05;;
38591;SDS011;24356;48.460;11.450;2023-06-26T03:54:55;11.50;;;7.68;;
38591;SDS011;24356;48.460;11.450;2023-06-26T03:57:25;13.98;;;7.32;;
38591;SDS011;24356;48.460;11.450;2023-06-26T03:59:51;13.27;;;6.85;;
38591;SDS011;24356;48.460;11.450;2023-06-26T04:02:18;13.45;;;8.43;;
38591;SDS011;24356;48.460;11.450;2023-06-26T04:04:44;10.75;;;7.03;;
38591;SDS011;24356;48.460;11.450;2023-06-26T04:07:09;11.13;;;7.78;;
38591;SDS011;24356;48.460;11.450;2023-06-26T04:09:35;11.93;;;7.53;;
38591;SDS011;24356;48.460;11.450;2023-06-26T04:12:01;10.85;;;7.30;;
38591;SDS011;24356;48.460;11.450;2023-06-26T04:14:27;10.60;;;7.00;;
38591;SDS011;24356;48.460;11.450;2023-06-26T04:16:53;13.35;;;6.93;;
38591;SDS011;24356;48.460;11.450;2023-06-26T04:19:18;12.32;;;7.55;;
38591;SDS011;24356;48.460;11.450;2023-06-26T04:21:44;10.48;;;6.90;;
38591;SDS011;24356;48.460;11.450;2023-06-26T04:24:10;10.77;;;6.90;;
38591;SDS011;24356;48.460;11.450;2023-06-26T04:26:35;13.20;;;7.88;;
38591;SDS011;24356;48.460;11.450;2023-06-26T04:29:02;13.75;;;7.82;;
38591;SDS011;24356;48.460;11.450;2023-06-26T04:31:28;11.15;;;8.15;;
38591;SDS011;24356;48.460;11.450;2023-06-26T04:33:54;12.75;;;7.95;;
38591;SDS011;24356;48.460;11.450;2023-06-26T04:36:20;12.30;;;7.72;;
38591;SDS011;24356;48.460;11.450;2023-06-26T04:38:46;13.23;;;8.90;;
38591;SDS011;24356;48.460;11.450;2023-06-26T04:41:13;15.82;;;9.90;;
38591;SDS011;24356;48.460;11.450;2023-06-26T04:43:39;14.93;;;9.73;;
38591;SDS011;24356;48.460;11.450;2023-06-26T04:46:05;15.98;;;9.30;;
38591;SDS011;24356;48.460;11.450;2023-06-26T04:48:31;18.95;;;12.02;;
38591;SDS011;24356;48.460;11.450;2023-06-26T04:50:57;25.33;;;13.43;;
38591;SDS011;24356;48.460;11.450;2023-06-26T04:53:24;21.33;;;12.68;;
38591;SDS011;24356;48.460;11.450;2023-06-26T04:55:50;19.70;;;11.95;;
38591;SDS011;24356;48.460;11.450;2023-06-26T04:58:16;18.95;;;12.50;;
38591;SDS011;24356;48.460;11.450;2023-06-26T05:00:42;17.63;;;11.98;;
38591;SDS011;24356;48.460;11.450;2023-06-26T05:03:11;20.77;;;13.23;;
38591;SDS011;24356;48.460;11.450;2023-06-26T05:05:38;18.60;;;11.35;;
38591;SDS011;24356;48.460;11.450;2023-06-26T05:08:22;25.73;;;14.48;;
38591;SDS011;24356;48.460;11.450;2023-06-26T05:10:49;21.08;;;14.13;;
38591;SDS011;24356;48.460;11.450;2023-06-26T05:13:14;24.67;;;13.40;;
38591;SDS011;24356;48.460;11.450;2023-06-26T05:15:44;24.00;;;15.27;;
38591;SDS011;24356;48.460;11.450;2023-06-26T05:18:11;27.70;;;15.93;;
38591;SDS011;24356;48.460;11.450;2023-06-26T05:20:37;22.83;;;15.43;;
38591;SDS011;24356;48.460;11.450;2023-06-26T05:23:04;22.98;;;15.10;;
38591;SDS011;24356;48.460;11.450;2023-06-26T05:25:30;23.80;;;14.38;;
38591;SDS011;24356;48.460;11.450;2023-06-26T05:27:56;25.60;;;13.88;;
38591;SDS011;24356;48.460;11.450;2023-06-26T05:30:26;22.23;;;13.85;;
38591;SDS011;24356;48.460;11.450;2023-06-26T05:32:52;21.98;;;13.60;;
38591;SDS011;24356;48.460;11.450;2023-06-26T05:35:22;18.42;;;11.48;;
38591;SDS011;24356;48.460;11.450;2023-06-26T05:37:48;18.02;;;11.80;;
38591;SDS011;24356;48.460;11.450;2023-06-26T05:40:16;18.20;;;11.68;;
38591;SDS011;24356;48.460;11.450;2023-06-26T05:42:44;16.35;;;11.35;;
38591;SDS011;24356;48.460;11.450;2023-06-26T05:45:10;17.98;;;11.00;;
38591;SDS011;24356;48.460;11.450;2023-06-26T05:47:36;20.05;;;10.88;;
38591;SDS011;24356;48.460;11.450;2023-06-26T05:50:02;16.08;;;11.23;;
38591;SDS011;24356;48.460;11.450;2023-06-26T05:52:28;18.45;;;10.75;;
38591;SDS011;24356;48.460;11.450;2023-06-26T05:54:55;16.05;;;10.98;;
38591;SDS011;24356;48.460;11.450;2023-06-26T05:57:25;16.77;;;11.45;;
38591;SDS011;24356;48.460;11.450;2023-06-26T05:59:54;18.05;;;10.73;;
38591;SDS011;24356;48.460;11.450;2023-06-26T06:02:22;16.10;;;11.15;;
38591;SDS011;24356;48.460;11.450;2023-06-26T06:04:48;16.80;;;10.70;;
38591;SDS011;24356;48.460;11.450;2023-06-26T06:07:14;15.35;;;10.20;;
38591;SDS011;24356;48.460;11.450;2023-06-26T06:09:39;16.25;;;10.75;;
38591;SDS011;24356;48.460;11.450;2023-06-26T06:12:05;14.60;;;10.68;;
38591;SDS011;24356;48.460;11.450;2023-06-26T06:14:32;18.45;;;10.35;;
38591;SDS011;24356;48.460;11.450;2023-06-26T06:17:01;15.70;;;9.95;;
38591;SDS011;24356;48.460;11.450;2023-06-26T06:19:26;17.83;;;10.95;;
38591;SDS011;24356;48.460;11.450;2023-06-26T06:21:54;15.07;;;9.75;;
38591;SDS011;24356;48.460;11.450;2023-06-26T06:24:20;13.90;;;9.13;;
38591;SDS011;24356;48.460;11.450;2023-06-26T06:26:46;20.35;;;9.43;;
38591;SDS011;24356;48.460;11.450;2023-06-26T06:29:11;13.52;;;9.00;;
38591;SDS011;24356;48.460;11.450;2023-06-26T06:31:37;15.27;;;9.50;;
38591;SDS011;24356;48.460;11.450;2023-06-26T06:34:02;16.75;;;9.32;;
38591;SDS011;24356;48.460;11.450;2023-06-26T06:36:28;14.13;;;8.45;;
38591;SDS011;24356;48.460;11.450;2023-06-26T06:38:53;18.05;;;9.65;;
38591;SDS011;24356;48.460;11.450;2023-06-26T06:41:19;16.08;;;9.43;;
38591;SDS011;24356;48.460;11.450;2023-06-26T06:43:45;12.98;;;8.52;;
38591;SDS011;24356;48.460;11.450;2023-06-26T06:46:11;14.05;;;8.75;;
38591;SDS011;24356;48.460;11.450;2023-06-26T06:48:46;12.48;;;8.45;;
38591;SDS011;24356;48.460;11.450;2023-06-26T06:51:12;11.93;;;8.38;;
38591;SDS011;24356;48.460;11.450;2023-06-26T06:53:37;11.30;;;7.80;;
38591;SDS011;24356;48.460;11.450;2023-06-26T06:56:03;12.48;;;7.80;;
38591;SDS011;24356;48.460;11.450;2023-06-26T06:58:29;11.52;;;7.80;;
38591;SDS011;24356;48.460;11.450;2023-06-26T07:00:59;11.20;;;7.68;;
38591;SDS011;24356;48.460;11.450;2023-06-26T07:03:27;13.70;;;7.53;;
38591;SDS011;24356;48.460;11.450;2023-06-26T07:05:53;11.20;;;7.47;;
38591;SDS011;24356;48.460;11.450;2023-06-26T07:08:20;10.18;;;7.18;;
38591;SDS011;24356;48.460;11.450;2023-06-26T07:10:46;11.32;;;7.68;;
38591;SDS011;24356;48.460;11.450;2023-06-26T07:13:11;12.27;;;7.63;;
38591;SDS011;24356;48.460;11.450;2023-06-26T07:15:37;12.18;;;7.30;;
38591;SDS011;24356;48.460;11.450;2023-06-26T07:18:02;11.70;;;7.00;;
38591;SDS011;24356;48.460;11.450;2023-06-26T07:20:28;11.48;;;7.75;;
38591;SDS011;24356;48.460;11.450;2023-06-26T07:22:53;11.65;;;7.38;;
38591;SDS011;24356;48.460;11.450;2023-06-26T07:25:19;10.18;;;7.22;;
38591;SDS011;24356;48.460;11.450;2023-06-26T07:27:45;9.65;;;7.03;;
38591;SDS011;24356;48.460;11.450;2023-06-26T07:30:10;10.60;;;7.13;;
38591;SDS011;24356;48.460;11.450;2023-06-26T07:35:21;9.38;;;7.00;;
38591;SDS011;24356;48.460;11.450;2023-06-26T07:37:47;12.05;;;7.47;;
38591;SDS011;24356;48.460;11.450;2023-06-26T07:40:13;11.38;;;7.05;;
38591;SDS011;24356;48.460;11.450;2023-06-26T07:42:38;14.82;;;7.85;;
38591;SDS011;24356;48.460;11.450;2023-06-26T07:45:05;12.07;;;6.85;;
38591;SDS011;24356;48.460;11.450;2023-06-26T07:47:39;12.18;;;7.18;;
38591;SDS011;24356;48.460;11.450;2023-06-26T07:50:05;10.68;;;6.78;;
38591;SDS011;24356;48.460;11.450;2023-06-26T07:52:31;9.60;;;6.70;;
38591;SDS011;24356;48.460;11.450;2023-06-26T07:54:57;10.40;;;7.50;;
38591;SDS011;24356;48.460;11.450;2023-06-26T07:57:23;14.45;;;7.38;;
38591;SDS011;24356;48.460;11.450;2023-06-26T07:59:49;12.50;;;6.60;;
38591;SDS011;24356;48.460;11.450;2023-06-26T08:02:15;10.20;;;6.85;;
38591;SDS011;24356;48.460;11.450;2023-06-26T08:04:41;14.15;;;7.00;;
38591;SDS011;24356;48.460;11.450;2023-06-26T08:07:06;9.80;;;6.90;;
38591;SDS011;24356;48.460;11.450;2023-06-26T08:09:32;10.38;;;6.85;;
38591;SDS011;24356;48.460;11.450;2023-06-26T08:11:58;13.15;;;7.15;;
38591;SDS011;24356;48.460;11.450;2023-06-26T08:14:24;9.18;;;6.55;;
38591;SDS011;24356;48.460;11.450;2023-06-26T08:16:50;10.05;;;6.63;;
38591;SDS011;24356;48.460;11.450;2023-06-26T08:19:16;10.05;;;6.20;;
38591;SDS011;24356;48.460;11.450;2023-06-26T08:21:42;9.45;;;6.85;;
38591;SDS011;24356;48.460;11.450;2023-06-26T08:24:09;9.98;;;6.50;;
38591;SDS011;24356;48.460;11.450;2023-06-26T08:26:35;12.40;;;6.88;;
38591;SDS011;24356;48.460;11.450;2023-06-26T08:29:01;10.98;;;6.40;;
38591;SDS011;24356;48.460;11.450;2023-06-26T08:31:32;10.40;;;6.28;;
38591;SDS011;24356;48.460;11.450;2023-06-26T08:34:02;10.18;;;6.70;;
38591;SDS011;24356;48.460;11.450;2023-06-26T08:36:29;9.27;;;6.35;;
38591;SDS011;24356;48.460;11.450;2023-06-26T08:38:55;8.75;;;6.03;;
38591;SDS011;24356;48.460;11.450;2023-06-26T08:41:20;9.38;;;6.25;;
38591;SDS011;24356;48.460;11.450;2023-06-26T08:43:46;9.70;;;6.18;;
38591;SDS011;24356;48.460;11.450;2023-06-26T08:46:13;9.30;;;5.93;;
38591;SDS011;24356;48.460;11.450;2023-06-26T08:48:39;8.05;;;6.10;;
38591;SDS011;24356;48.460;11.450;2023-06-26T08:51:11;7.88;;;6.47;;
38591;SDS011;24356;48.460;11.450;2023-06-26T08:56:03;10.52;;;6.38;;
38591;SDS011;24356;48.460;11.450;2023-06-26T08:58:30;9.10;;;6.18;;
38591;SDS011;24356;48.460;11.450;2023-06-26T09:00:56;12.80;;;6.43;;
38591;SDS011;24356;48.460;11.450;2023-06-26T09:03:22;8.68;;;6.43;;
38591;SDS011;24356;48.460;11.450;2023-06-26T09:05:50;6.80;;;5.53;;
38591;SDS011;24356;48.460;11.450;2023-06-26T09:08:15;6.22;;;5.32;;
38591;SDS011;24356;48.460;11.450;2023-06-26T09:10:41;10.43;;;6.05;;
38591;SDS011;24356;48.460;11.450;2023-06-26T09:13:06;8.18;;;6.00;;
38591;SDS011;24356;48.460;11.450;2023-06-26T09:15:38;7.40;;;6.00;;
38591;SDS011;24356;48.460;11.450;2023-06-26T09:18:08;7.53;;;5.75;;
38591;SDS011;24356;48.460;11.450;2023-06-26T09:20:33;9.30;;;5.68;;
38591;SDS011;24356;48.460;11.450;2023-06-26T09:22:59;7.30;;;6.00;;
38591;SDS011;24356;48.460;11.450;2023-06-26T09:25:25;10.23;;;5.47;;
38591;SDS011;24356;48.460;11.450;2023-06-26T09:27:53;8.45;;;6.03;;
38591;SDS011;24356;48.460;11.450;2023-06-26T09:30:20;6.55;;;5.28;;
38591;SDS011;24356;48.460;11.450;2023-06-26T09:32:48;10.18;;;5.65;;
38591;SDS011;24356;48.460;11.450;2023-06-26T09:35:19;8.98;;;5.80;;
38591;SDS011;24356;48.460;11.450;2023-06-26T09:37:45;7.53;;;5.72;;
38591;SDS011;24356;48.460;11.450;2023-06-26T09:40:10;7.38;;;5.60;;
38591;SDS011;24356;48.460;11.450;2023-06-26T09:42:38;6.90;;;5.03;;
38591;SDS011;24356;48.460;11.450;2023-06-26T09:45:04;6.00;;;5.10;;
38591;SDS011;24356;48.460;11.450;2023-06-26T09:47:30;9.93;;;5.53;;
38591;SDS011;24356;48.460;11.450;2023-06-26T09:50:02;7.18;;;5.28;;
38591;SDS011;24356;48.460;11.450;2023-06-26T09:52:29;6.40;;;4.78;;
38591;SDS011;24356;48.460;11.450;2023-06-26T09:55:07;5.72;;;5.05;;
38591;SDS011;24356;48.460;11.450;2023-06-26T09:57:34;6.90;;;5.40;;
38591;SDS011;24356;48.460;11.450;2023-06-26T10:00:00;5.55;;;4.82;;
38591;SDS011;24356;48.460;11.450;2023-06-26T10:02:27;6.03;;;5.20;;
38591;SDS011;24356;48.460;11.450;2023-06-26T10:04:52;6.47;;;4.80;;
38591;SDS011;24356;48.460;11.450;2023-06-26T10:07:18;6.80;;;4.50;;
38591;SDS011;24356;48.460;11.450;2023-06-26T10:09:46;5.65;;;4.90;;
38591;SDS011;24356;48.460;11.450;2023-06-26T10:12:18;8.80;;;5.15;;
38591;SDS011;24356;48.460;11.450;2023-06-26T10:14:47;9.43;;;4.80;;
38591;SDS011;24356;48.460;11.450;2023-06-26T10:17:19;5.40;;;4.90;;
38591;SDS011;24356;48.460;11.450;2023-06-26T10:19:46;8.73;;;5.00;;
38591;SDS011;24356;48.460;11.450;2023-06-26T10:22:17;7.82;;;5.22;;
38591;SDS011;24356;48.460;11.450;2023-06-26T10:24:45;5.88;;;4.80;;
38591;SDS011;24356;48.460;11.450;2023-06-26T10:29:43;7.35;;;5.30;;
38591;SDS011;24356;48.460;11.450;2023-06-26T10:32:16;7.70;;;5.10;;
38591;SDS011;24356;48.460;11.450;2023-06-26T10:34:43;8.25;;;4.97;;
38591;SDS011;24356;48.460;11.450;2023-06-26T10:37:09;4.93;;;4.43;;
38591;SDS011;24356;48.460;11.450;2023-06-26T10:39:47;7.10;;;5.10;;
38591;SDS011;24356;48.460;11.450;2023-06-26T10:42:19;9.68;;;4.90;;
38591;SDS011;24356;48.460;11.450;2023-06-26T10:44:58;5.78;;;4.32;;
38591;SDS011;24356;48.460;11.450;2023-06-26T10:47:53;7.97;;;4.82;;
38591;SDS011;24356;48.460;11.450;2023-06-26T10:50:26;7.03;;;5.10;;
38591;SDS011;24356;48.460;11.450;2023-06-26T10:55:35;9.52;;;4.80;;
38591;SDS011;24356;48.460;11.450;2023-06-26T10:58:01;5.60;;;4.72;;
38591;SDS011;24356;48.460;11.450;2023-06-26T11:00:27;5.20;;;4.70;;
38591;SDS011;24356;48.460;11.450;2023-06-26T11:02:53;7.32;;;5.47;;
38591;SDS011;24356;48.460;11.450;2023-06-26T11:05:26;5.55;;;4.90;;
38591;SDS011;24356;48.460;11.450;2023-06-26T11:08:02;8.43;;;5.00;;
38591;SDS011;24356;48.460;11.450;2023-06-26T11:10:50;5.22;;;4.50;;
38591;SDS011;24356;48.460;11.450;2023-06-26T11:13:20;6.40;;;4.65;;
38591;SDS011;24356;48.460;11.450;2023-06-26T11:15:48;11.63;;;4.75;;
38591;SDS011;24356;48.460;11.450;2023-06-26T11:18:15;5.53;;;4.78;;
38591;SDS011;24356;48.460;11.450;2023-06-26T11:20:41;6.57;;;5.20;;
38591;SDS011;24356;48.460;11.450;2023-06-26T11:23:10;9.15;;;4.93;;
38591;SDS011;24356;48.460;11.450;2023-06-26T11:25:37;6.63;;;4.85;;
38591;SDS011;24356;48.460;11.450;2023-06-26T11:28:03;6.07;;;4.72;;
38591;SDS011;24356;48.460;11.450;2023-06-26T11:30:30;5.63;;;4.40;;
38591;SDS011;24356;48.460;11.450;2023-06-26T11:33:04;5.35;;;4.60;;
38591;SDS011;24356;48.460;11.450;2023-06-26T11:35:31;8.20;;;4.60;;
38591;SDS011;24356;48.460;11.450;2023-06-26T11:37:57;6.28;;;4.82;;
38591;SDS011;24356;48.460;11.450;2023-06-26T11:40:37;8.18;;;4.75;;
38591;SDS011;24356;48.460;11.450;2023-06-26T11:43:03;7.57;;;4.40;;
38591;SDS011;24356;48.460;11.450;2023-06-26T11:45:29;7.07;;;4.75;;
38591;SDS011;24356;48.460;11.450;2023-06-26T11:47:58;5.13;;;4.38;;
38591;SDS011;24356;48.460;11.450;2023-06-26T11:50:26;11.05;;;4.68;;
38591;SDS011;24356;48.460;11.450;2023-06-26T11:52:53;4.72;;;4.20;;
38591;SDS011;24356;48.460;11.450;2023-06-26T11:55:20;7.60;;;4.65;;
38591;SDS011;24356;48.460;11.450;2023-06-26T11:57:50;8.93;;;5.32;;
38591;SDS011;24356;48.460;11.450;2023-06-26T12:00:18;8.00;;;4.80;;
38591;SDS011;24356;48.460;11.450;2023-06-26T12:02:44;8.20;;;4.60;;
38591;SDS011;24356;48.460;11.450;2023-06-26T12:05:12;6.78;;;4.60;;
38591;SDS011;24356;48.460;11.450;2023-06-26T12:07:39;5.07;;;4.28;;
38591;SDS011;24356;48.460;11.450;2023-06-26T12:10:06;5.57;;;4.45;;
38591;SDS011;24356;48.460;11.450;2023-06-26T12:12:33;7.80;;;4.25;;
38591;SDS011;24356;48.460;11.450;2023-06-26T12:14:59;5.70;;;4.60;;
38591;SDS011;24356;48.460;11.450;2023-06-26T12:17:25;5.15;;;4.43;;
38591;SDS011;24356;48.460;11.450;2023-06-26T12:19:51;6.70;;;4.53;;
38591;SDS011;24356;48.460;11.450;2023-06-26T12:22:17;9.48;;;4.43;;
38591;SDS011;24356;48.460;11.450;2023-06-26T12:24:44;10.88;;;4.68;;
38591;SDS011;24356;48.460;11.450;2023-06-26T12:27:13;6.90;;;4.50;;
38591;SDS011;24356;48.460;11.450;2023-06-26T12:29:40;8.55;;;4.50;;
38591;SDS011;24356;48.460;11.450;2023-06-26T12:32:12;10.43;;;4.75;;
38591;SDS011;24356;48.460;11.450;2023-06-26T12:34:39;6.45;;;4.68;;
38591;SDS011;24356;48.460;11.450;2023-06-26T12:37:06;7.93;;;4.85;;
38591;SDS011;24356;48.460;11.450;2023-06-26T12:39:52;5.28;;;4.63;;
38591;SDS011;24356;48.460;11.450;2023-06-26T12:42:26;6.43;;;5.05;;
38591;SDS011;24356;48.460;11.450;2023-06-26T12:44:52;8.25;;;4.90;;
38591;SDS011;24356;48.460;11.450;2023-06-26T12:47:26;6.05;;;4.78;;
38591;SDS011;24356;48.460;11.450;2023-06-26T12:49:53;7.38;;;4.93;;
38591;SDS011;24356;48.460;11.450;2023-06-26T12:52:19;5.53;;;4.63;;
38591;SDS011;24356;48.460;11.450;2023-06-26T12:54:46;6.03;;;4.72;;
38591;SDS011;24356;48.460;11.450;2023-06-26T12:57:15;7.45;;;5.22;;
38591;SDS011;24356;48.460;11.450;2023-06-26T12:59:41;9.32;;;4.60;;
38591;SDS011;24356;48.460;11.450;2023-06-26T13:02:07;9.48;;;4.60;;
38591;SDS011;24356;48.460;11.450;2023-06-26T13:04:37;5.43;;;4.40;;
38591;SDS011;24356;48.460;11.450;2023-06-26T13:07:05;5.25;;;4.20;;
38591;SDS011;24356;48.460;11.450;2023-06-26T13:09:34;6.57;;;4.25;;
38591;SDS011;24356;48.460;11.450;2023-06-26T13:12:00;6.28;;;4.60;;
38591;SDS011;24356;48.460;11.450;2023-06-26T13:14:28;6.63;;;4.30;;
38591;SDS011;24356;48.460;11.450;2023-06-26T13:16:54;6.80;;;4.60;;
38591;SDS011;24356;48.460;11.450;2023-06-26T13:19:20;10.27;;;4.47;;
38591;SDS011;24356;48.460;11.450;2023-06-26T13:21:45;7.45;;;4.75;;
38591;SDS011;24356;48.460;11.450;2023-06-26T13:24:11;5.22;;;4.40;;
38591;SDS011;24356;48.460;11.450;2023-06-26T13:26:38;4.80;;;4.25;;
38591;SDS011;24356;48.460;11.450;2023-06-26T13:29:04;7.55;;;4.20;;
38591;SDS011;24356;48.460;11.450;2023-06-26T13:31:30;7.95;;;4.80;;
38591;SDS011;24356;48.460;11.450;2023-06-26T13:33:57;4.70;;;4.20;;
38591;SDS011;24356;48.460;11.450;2023-06-26T13:36:28;6.43;;;4.53;;
38591;SDS011;24356;48.460;11.450;2023-06-26T13:38:55;8.45;;;4.50;;
38591;SDS011;24356;48.460;11.450;2023-06-26T13:41:22;6.22;;;4.57;;
38591;SDS011;24356;48.460;11.450;2023-06-26T13:43:51;5.55;;;4.70;;
38591;SDS011;24356;48.460;11.450;2023-06-26T13:46:16;6.20;;;4.63;;
38591;SDS011;24356;48.460;11.450;2023-06-26T13:48:44;6.93;;;4.63;;
38591;SDS011;24356;48.460;11.450;2023-06-26T13:51:10;7.63;;;4.63;;
38591;SDS011;24356;48.460;11.450;2023-06-26T13:53:36;7.47;;;4.43;;
38591;SDS011;24356;48.460;11.450;2023-06-26T13:56:01;6.55;;;4.50;;
38591;SDS011;24356;48.460;11.450;2023-06-26T13:58:27;9.88;;;4.60;;
38591;SDS011;24356;48.460;11.450;2023-06-26T14:00:54;5.90;;;4.38;;
38591;SDS011;24356;48.460;11.450;2023-06-26T14:03:20;5.45;;;4.55;;
38591;SDS011;24356;48.460;11.450;2023-06-26T14:05:46;5.90;;;4.57;;
38591;SDS011;24356;48.460;11.450;2023-06-26T14:08:12;10.00;;;4.63;;
38591;SDS011;24356;48.460;11.450;2023-06-26T14:10:38;12.65;;;4.80;;
38591;SDS011;24356;48.460;11.450;2023-06-26T14:13:05;6.05;;;4.75;;
38591;SDS011;24356;48.460;11.450;2023-06-26T14:15:32;5.25;;;4.22;;
38591;SDS011;24356;48.460;11.450;2023-06-26T14:17:58;7.78;;;4.82;;
38591;SDS011;24356;48.460;11.450;2023-06-26T14:20:24;5.93;;;4.60;;
38591;SDS011;24356;48.460;11.450;2023-06-26T14:22:49;6.00;;;4.70;;
38591;SDS011;24356;48.460;11.450;2023-06-26T14:25:16;5.75;;;4.88;;
38591;SDS011;24356;48.460;11.450;2023-06-26T14:27:41;6.53;;;4.60;;
38591;SDS011;24356;48.460;11.450;2023-06-26T14:30:09;8.20;;;4.80;;
38591;SDS011;24356;48.460;11.450;2023-06-26T14:32:35;5.80;;;4.90;;
38591;SDS011;24356;48.460;11.450;2023-06-26T14:35:01;7.85;;;4.85;;
38591;SDS011;24356;48.460;11.450;2023-06-26T14:37:28;8.00;;;4.43;;
38591;SDS011;24356;48.460;11.450;2023-06-26T14:39:55;6.43;;;4.55;;
38591;SDS011;24356;48.460;11.450;2023-06-26T14:42:23;5.80;;;4.75;;